Bethlehem, PA (18015)

6:44 AM EST on February 07, 2016 (GMT -0500)
South Mountain | | Change Station
CLOSE
Current Station
Personal Weather Station
Location: Bethlehem, PA
Elevation: 505 ft
Nearby Weather Stations

Elev 505 ft 40.60 °N, 75.38 °W | Updated 1 minute ago

Clear
Clear
24.1 °F
Feels Like 24 °F
N
0.0
Wind Variable Wind from North

Today
High -- | Low -- °F
--% Chance of Precip.
Yesterday
High -- | Low -- °F
Precip. -- in
Pressure 30.20 in
Visibility 7.0 miles
Clouds Clear
Windchill 24 °F
Dew Point 17 °F
Humidity 74%
Rainfall 0.00 in
Snow Depth Not available.
7:05 AM 5:26 PM
Waning Crescent, 2% visible
METAR KABE 071051Z 00000KT 7SM CLR M06/M08 A3018 RMK AO2 SLP226 T10611083 $
Pressure 30.20 in
Visibility 7.0 miles
Clouds Clear
Windchill 24 °F
Dew Point 17 °F
Humidity 74%
Rainfall 0.00 in
Snow Depth Not available.
7:05 AM 5:26 PM
Waning Crescent, 2% visible
METAR KABE 071051Z 00000KT 7SM CLR M06/M08 A3018 RMK AO2 SLP226 T10611083 $

10-Day Weather Forecast

Almanac

Astronomy

Feb. 07, 2016 Rise Set
Actual Time
Civil Twilight
Nautical Twilight
Astronomical Twilight
Moon
Length of Visible Light
Length of Day
Tomorrow will be .
, % of the Moon is Illuminated

Today's Extremes

State Highs State Lows

Community

WunderPhotos

Upload Photos

1,891,182 photos uploaded!

WunderBlog® & News

Nearby

Air Quality

  Air Quality AQ Index Pollutant
Not available.

Snow Depth

Station Depth Elevation

Earthquake Activity

City Distance Mag. Time & Date
Minimum magnitude displayed is 2.5.

Coastal Water Temperatures

Place Temperature

Stations

Nearby Weather Stations

Station Location Temp. Windchill Dew Point Humidity Wind Precip. Elev Updated Type
                   

Watches & Warnings

There are currently no watches in effect.